Time;durP1;ratioP1;P1;durP2;ratioP2;P2;SDS_P1;SDS_P2;PMS_P1;PMS_P2;Temp;Humidity;BMP_temperature;BMP_pressure;BME280_temperature;BME280_humidity;BME280_pressure;Samples;Min_cycle;Max_cycle;Signal;HPM_P1;HPM_P2
2021/03/23 00:00:40;;;;;;;5.90;3.90;;;7.10;99.90;;;;;;4936030;28;20592;-63
2021/03/23 00:03:18;;;;;;;5.03;3.33;;;7.00;99.90;;;;;;4934184;28;22775;-63
2021/03/23 00:05:55;;;;;;;6.53;3.97;;;6.80;99.90;;;;;;4933659;28;21027;-62
2021/03/23 00:08:41;;;;;;;5.20;3.93;;;6.80;99.90;;;;;;4918261;28;20871;-62
2021/03/23 00:11:09;;;;;;;6.17;3.53;;;6.90;99.90;;;;;;4935079;28;20729;-64
2021/03/23 00:13:40;;;;;;;7.70;4.13;;;7.00;99.90;;;;;;4935423;28;20660;-62
2021/03/23 00:16:06;;;;;;;6.40;4.27;;;6.90;99.90;;;;;;4937862;28;21744;-65
2021/03/23 00:18:32;;;;;;;5.80;4.27;;;7.00;99.90;;;;;;4917685;28;20695;-62
2021/03/23 00:21:02;;;;;;;8.83;4.57;;;6.90;99.90;;;;;;4938053;28;20646;-62
2021/03/23 00:23:37;;;;;;;6.53;4.30;;;7.00;99.90;;;;;;4935646;28;20186;-63
2021/03/23 00:26:05;;;;;;;7.33;3.90;;;7.00;99.90;;;;;;4939493;28;20722;-62
2021/03/23 00:28:49;;;;;;;4.90;3.90;;;6.90;99.90;;;;;;4937030;28;20732;-62
2021/03/23 00:31:29;;;;;;;5.33;3.80;;;6.70;99.90;;;;;;4935078;28;20822;-62
2021/03/23 00:33:58;;;;;;;6.77;3.10;;;6.70;99.90;;;;;;4931504;28;20728;-62
2021/03/23 00:36:32;;;;;;;3.07;2.83;;;6.70;99.90;;;;;;4936913;28;20643;-62
2021/03/23 00:39:00;;;;;;;3.17;2.80;;;6.80;99.90;;;;;;4933751;28;20662;-62
2021/03/23 00:41:28;;;;;;;2.63;2.40;;;6.70;99.90;;;;;;4931987;28;21302;-62
2021/03/23 00:44:16;;;;;;;3.30;2.03;;;6.80;99.90;;;;;;4935227;28;21109;-63
2021/03/23 00:46:51;;;;;;;4.40;2.27;;;6.70;99.90;;;;;;4939792;28;21166;-62
2021/03/23 00:49:19;;;;;;;3.97;2.50;;;6.60;99.90;;;;;;4943633;28;21186;-61
2021/03/23 00:52:03;;;;;;;5.83;1.80;;;6.60;99.90;;;;;;4935310;28;20726;-64
2021/03/23 00:54:28;;;;;;;4.03;2.00;;;6.50;99.90;;;;;;4919214;28;20657;-61
2021/03/23 00:57:07;;;;;;;3.73;2.10;;;6.50;99.90;;;;;;4946358;28;20995;-62
2021/03/23 00:59:40;;;;;;;3.50;2.20;;;6.50;99.90;;;;;;4939632;28;20233;-62
2021/03/23 01:02:10;;;;;;;5.87;2.40;;;6.60;99.90;;;;;;4936238;28;21314;-62
2021/03/23 01:04:42;;;;;;;2.80;1.77;;;6.60;99.90;;;;;;4937797;28;21396;-63
2021/03/23 01:07:24;;;;;;;3.50;2.00;;;6.60;99.90;;;;;;4942718;28;20683;-63
2021/03/23 01:09:59;;;;;;;2.93;2.10;;;6.60;99.90;;;;;;4939515;28;20649;-62
2021/03/23 01:12:30;;;;;;;4.20;2.10;;;6.60;99.90;;;;;;4942765;28;20655;-62
2021/03/23 01:15:05;;;;;;;3.30;2.00;;;6.60;99.90;;;;;;4920756;28;20803;-63
2021/03/23 01:17:41;;;;;;;3.53;2.10;;;6.60;99.90;;;;;;4941979;28;21261;-65
2021/03/23 01:20:12;;;;;;;3.20;1.97;;;6.60;99.90;;;;;;4942519;28;21212;-62
2021/03/23 01:22:48;;;;;;;4.20;2.20;;;6.60;99.90;;;;;;4943431;28;20644;-63
2021/03/23 01:25:24;;;;;;;2.93;2.40;;;6.50;99.90;;;;;;4941606;28;20767;-62
2021/03/23 01:27:52;;;;;;;6.10;2.87;;;6.50;99.90;;;;;;4939198;28;22639;-62
2021/03/23 01:30:24;;;;;;;2.87;2.00;;;6.70;99.90;;;;;;4921585;28;21300;-62
2021/03/23 01:32:58;;;;;;;3.63;2.83;;;6.80;99.90;;;;;;4941654;28;20784;-63
2021/03/23 01:35:33;;;;;;;4.93;2.27;;;6.70;99.90;;;;;;4940490;28;20639;-63
2021/03/23 01:38:02;;;;;;;3.30;2.30;;;6.60;99.90;;;;;;4941604;28;20653;-63
2021/03/23 01:40:34;;;;;;;2.43;2.20;;;6.70;99.90;;;;;;4939245;28;20909;-62
2021/03/23 01:43:29;;;;;;;4.63;2.30;;;6.70;99.90;;;;;;4942167;28;20847;-63
2021/03/23 01:45:59;;;;;;;2.90;2.53;;;6.70;99.90;;;;;;4940274;28;20739;-63
2021/03/23 01:48:31;;;;;;;4.60;2.47;;;6.90;99.90;;;;;;4934956;28;20840;-63
2021/03/23 01:51:02;;;;;;;3.80;2.30;;;6.90;99.90;;;;;;4923621;28;20643;-63
2021/03/23 01:54:11;;;;;;;3.93;2.40;;;6.90;99.90;;;;;;4939580;28;22094;-63
2021/03/23 01:56:39;;;;;;;5.07;2.50;;;6.80;99.90;;;;;;4939038;28;20636;-63
2021/03/23 01:59:23;;;;;;;2.70;2.40;;;6.80;99.90;;;;;;4936824;28;22734;-62
2021/03/23 02:01:51;;;;;;;5.37;2.53;;;6.70;99.90;;;;;;4937498;28;20641;-62
2021/03/23 02:04:26;;;;;;;4.07;2.17;;;6.80;99.90;;;;;;4935224;28;20801;-63
2021/03/23 02:06:54;;;;;;;3.50;2.40;;;6.80;99.90;;;;;;4937308;28;22004;-62
2021/03/23 02:09:30;;;;;;;2.93;1.90;;;6.70;99.90;;;;;;4937530;28;20983;-63
2021/03/23 02:11:58;;;;;;;4.40;2.20;;;6.70;99.90;;;;;;4941693;28;20648;-63
2021/03/23 02:14:28;;;;;;;3.40;2.30;;;6.70;99.90;;;;;;4936108;28;20693;-62
2021/03/23 02:17:13;;;;;;;3.20;2.20;;;6.70;99.90;;;;;;4938764;28;21833;-62
2021/03/23 02:19:50;;;;;;;3.13;1.90;;;6.80;99.90;;;;;;4937220;28;20739;-62
2021/03/23 02:22:34;;;;;;;3.13;2.20;;;6.70;99.90;;;;;;4937941;28;20734;-62
2021/03/23 02:25:30;;;;;;;3.17;2.40;;;6.80;99.90;;;;;;4938030;28;20613;-63
2021/03/23 02:28:06;;;;;;;5.93;2.30;;;6.80;99.90;;;;;;4939087;28;20671;-62
2021/03/23 02:30:52;;;;;;;3.80;2.10;;;6.70;99.90;;;;;;4940049;28;20619;-62
2021/03/23 02:33:20;;;;;;;3.30;2.57;;;6.70;99.90;;;;;;4942774;28;24868;-62
2021/03/23 02:35:48;;;;;;;2.87;2.10;;;6.70;99.90;;;;;;4918630;28;20637;-62
2021/03/23 02:38:33;;;;;;;3.47;2.30;;;6.90;99.90;;;;;;4946682;28;20664;-62
2021/03/23 02:41:02;;;;;;;4.30;2.07;;;6.80;99.90;;;;;;4941526;28;20608;-62
2021/03/23 02:43:35;;;;;;;3.80;2.50;;;7.00;99.90;;;;;;4925720;28;20628;-61
2021/03/23 02:46:08;;;;;;;5.13;2.30;;;6.90;99.90;;;;;;4922515;28;20791;-61
2021/03/23 02:48:39;;;;;;;3.60;2.73;;;6.90;99.90;;;;;;4938250;28;20848;-62
2021/03/23 02:51:17;;;;;;;5.70;2.50;;;6.90;99.90;;;;;;4921779;28;21276;-61
2021/03/23 02:53:47;;;;;;;2.20;2.00;;;7.00;99.90;;;;;;4943622;28;20711;-62
2021/03/23 02:56:17;;;;;;;3.17;2.33;;;6.90;99.90;;;;;;4943287;28;20648;-62
2021/03/23 02:58:56;;;;;;;;;;;;;;;;;;;;;
2021/03/23 03:01:22;;;;;;;2.90;2.30;;;6.90;99.90;;;;;;4937799;28;20648;-62
2021/03/23 03:03:55;;;;;;;2.50;2.10;;;6.80;99.90;;;;;;4935003;28;20977;-62
2021/03/23 03:06:33;;;;;;;2.70;2.23;;;6.80;99.90;;;;;;4937470;28;20204;-63
2021/03/23 03:09:10;;;;;;;3.40;1.77;;;6.90;99.90;;;;;;4933955;28;20652;-62
2021/03/23 03:11:46;;;;;;;5.03;2.23;;;7.00;99.90;;;;;;4935517;28;21326;-62
2021/03/23 03:14:24;;;;;;;2.50;1.63;;;6.90;99.90;;;;;;4937333;28;20651;-62
2021/03/23 03:17:13;;;;;;;3.23;2.00;;;6.90;99.90;;;;;;4931092;28;20651;-61
2021/03/23 03:19:38;;;;;;;3.17;1.50;;;6.90;99.90;;;;;;4935528;28;20850;-61
2021/03/23 03:22:07;;;;;;;3.80;2.17;;;6.90;99.90;;;;;;4914919;28;20719;-62
2021/03/23 03:24:37;;;;;;;4.27;1.87;;;6.90;99.90;;;;;;4937240;28;20894;-61
2021/03/23 03:27:05;;;;;;;3.50;2.20;;;6.90;99.90;;;;;;4942841;28;20812;-62
2021/03/23 03:29:43;;;;;;;4.13;1.90;;;6.80;99.90;;;;;;4938023;28;20652;-64
2021/03/23 03:32:11;;;;;;;2.60;1.97;;;6.80;99.90;;;;;;4936882;28;20798;-62
2021/03/23 03:34:39;;;;;;;4.00;2.00;;;6.80;99.90;;;;;;4955696;28;21111;-61
2021/03/23 03:37:10;;;;;;;3.10;2.20;;;6.70;99.90;;;;;;4962140;28;20617;-62
2021/03/23 03:39:44;;;;;;;5.03;3.33;;;6.80;99.90;;;;;;4960190;28;20681;-61
2021/03/23 03:42:14;;;;;;;3.10;2.00;;;6.80;99.90;;;;;;4958493;28;20668;-61
2021/03/23 03:44:42;;;;;;;3.63;2.13;;;6.80;99.90;;;;;;4924199;28;21163;-62
2021/03/23 03:47:24;;;;;;;3.70;2.43;;;6.80;99.90;;;;;;4940151;28;20713;-62
2021/03/23 03:49:50;;;;;;;5.57;2.43;;;6.80;99.90;;;;;;4911615;28;20703;-61
2021/03/23 03:52:18;;;;;;;3.90;2.43;;;6.90;99.90;;;;;;4936079;28;21216;-62
2021/03/23 03:54:46;;;;;;;2.60;2.20;;;6.90;99.90;;;;;;4936191;28;20289;-61
2021/03/23 03:57:20;;;;;;;2.97;2.40;;;7.00;99.90;;;;;;4942245;28;20644;-61
2021/03/23 03:59:46;;;;;;;3.43;2.30;;;7.00;99.90;;;;;;4937374;28;20730;-61
2021/03/23 04:02:15;;;;;;;3.03;2.50;;;7.00;99.90;;;;;;4934548;28;21081;-62
2021/03/23 04:04:45;;;;;;;4.77;3.83;;;7.10;99.90;;;;;;4921029;28;21325;-62
2021/03/23 04:07:16;;;;;;;4.50;4.10;;;7.10;99.90;;;;;;4941721;28;20597;-62
2021/03/23 04:09:49;;;;;;;2.53;2.03;;;7.10;99.90;;;;;;4937531;28;20712;-61
2021/03/23 04:12:24;;;;;;;3.20;2.57;;;7.00;99.90;;;;;;4941467;28;21078;-62
2021/03/23 04:14:50;;;;;;;3.57;2.83;;;7.00;99.90;;;;;;4937247;28;20690;-62
2021/03/23 04:17:31;;;;;;;4.23;3.07;;;7.00;99.90;;;;;;4916218;28;20895;-62
2021/03/23 04:19:59;;;;;;;5.33;2.97;;;6.90;99.90;;;;;;4937069;28;20485;-63
2021/03/23 04:22:25;;;;;;;4.93;3.17;;;6.90;99.90;;;;;;4934288;28;23198;-62
2021/03/23 04:24:50;;;;;;;5.50;2.77;;;7.00;99.90;;;;;;4933134;28;20613;-62
2021/03/23 04:27:20;;;;;;;5.20;3.23;;;7.10;99.90;;;;;;4934013;28;21247;-64
2021/03/23 04:29:59;;;;;;;;;;;;;;;;;;;;;
2021/03/23 04:32:33;;;;;;;4.20;2.93;;;7.00;99.90;;;;;;4943096;28;24166;-62
2021/03/23 04:35:01;;;;;;;4.87;3.50;;;6.90;99.90;;;;;;4938545;28;20609;-62
2021/03/23 04:37:26;;;;;;;5.13;3.27;;;7.00;99.90;;;;;;4935653;28;20736;-62
2021/03/23 04:42:56;;;;;;;4.43;3.03;;;6.90;99.90;;;;;;4930236;28;20685;-63
2021/03/23 04:45:29;;;;;;;4.90;3.43;;;6.90;99.90;;;;;;4918644;28;23008;-62
2021/03/23 04:48:00;;;;;;;5.37;3.30;;;6.80;99.90;;;;;;4935931;28;20628;-63
2021/03/23 04:50:26;;;;;;;5.50;2.93;;;6.90;99.90;;;;;;4937895;28;20609;-63
2021/03/23 04:52:54;;;;;;;3.97;2.97;;;6.90;99.90;;;;;;4937151;28;20699;-63
2021/03/23 04:55:32;;;;;;;6.00;3.37;;;6.90;99.90;;;;;;4934415;28;20262;-62
2021/03/23 04:57:58;;;;;;;5.30;3.43;;;7.10;99.90;;;;;;4944924;28;20620;-62
2021/03/23 05:00:24;;;;;;;3.87;3.47;;;7.10;99.90;;;;;;4936537;28;20876;-62
2021/03/23 05:03:12;;;;;;;;;;;;;;;;;;;;;
2021/03/23 05:05:44;;;;;;;5.13;3.80;;;7.00;99.90;;;;;;4937823;28;20178;-62
2021/03/23 05:08:10;;;;;;;6.20;3.77;;;6.90;99.90;;;;;;4931740;28;20777;-62
2021/03/23 05:10:43;;;;;;;5.87;4.27;;;6.90;99.90;;;;;;4938328;28;20650;-62
2021/03/23 05:13:24;;;;;;;5.00;3.90;;;7.00;99.90;;;;;;4934127;28;22605;-62
2021/03/23 05:15:49;;;;;;;7.90;3.80;;;7.00;99.90;;;;;;4932028;28;20664;-63
2021/03/23 05:18:43;;;;;;;6.23;3.80;;;7.00;99.90;;;;;;4936605;28;20661;-62
2021/03/23 05:21:14;;;;;;;4.60;3.40;;;6.90;99.90;;;;;;4933613;28;20260;-62
2021/03/23 05:23:44;;;;;;;6.50;3.70;;;7.00;99.90;;;;;;4917274;28;20655;-62
2021/03/23 05:26:20;;;;;;;5.53;4.00;;;7.00;99.90;;;;;;4935922;28;21462;-62
2021/03/23 05:28:46;;;;;;;6.43;4.10;;;7.00;99.90;;;;;;4938846;28;20835;-62
2021/03/23 05:31:15;;;;;;;5.40;3.90;;;7.00;99.90;;;;;;4938508;28;21201;-62
2021/03/23 05:33:43;;;;;;;7.37;4.40;;;6.90;99.90;;;;;;4939191;28;20624;-62
2021/03/23 05:36:12;;;;;;;5.50;4.00;;;6.90;99.90;;;;;;4938160;28;20609;-62
2021/03/23 05:38:40;;;;;;;5.20;4.10;;;7.00;99.90;;;;;;4937335;28;20827;-62
2021/03/23 05:41:24;;;;;;;4.80;3.80;;;6.90;99.90;;;;;;4941952;28;20625;-62
2021/03/23 05:44:04;;;;;;;5.60;4.30;;;7.00;99.90;;;;;;4939968;28;20738;-62
2021/03/23 05:46:38;;;;;;;4.57;4.17;;;7.00;99.90;;;;;;4950047;28;20659;-62
2021/03/23 05:49:31;;;;;;;5.03;3.80;;;7.00;99.90;;;;;;4939054;28;20660;-62
2021/03/23 05:52:07;;;;;;;7.20;4.00;;;7.00;99.90;;;;;;4938137;28;22172;-62
2021/03/23 05:54:53;;;;;;;4.97;4.10;;;7.00;99.90;;;;;;4944295;28;20604;-62
2021/03/23 05:57:31;;;;;;;7.43;3.97;;;7.10;99.90;;;;;;4947793;28;21404;-63
2021/03/23 06:03:06;;;;;;;4.70;3.87;;;6.90;99.90;;;;;;4943306;28;21807;-62
2021/03/23 06:05:44;;;;;;;7.27;4.20;;;6.90;99.90;;;;;;4939679;28;21125;-62
2021/03/23 06:08:28;;;;;;;5.50;4.77;;;7.00;99.90;;;;;;4940204;28;20588;-62
2021/03/23 06:11:29;;;;;;;6.33;3.83;;;7.00;99.90;;;;;;4937108;28;21397;-63
2021/03/23 06:14:45;;;;;;;6.87;4.77;;;6.90;99.90;;;;;;4917366;28;20632;-62
2021/03/23 06:17:13;;;;;;;7.57;4.60;;;6.90;99.90;;;;;;4879504;28;21431;-62
2021/03/23 06:20:02;;;;;;;6.70;4.83;;;6.90;99.90;;;;;;4933089;28;20758;-63
2021/03/23 06:22:42;;;;;;;;;;;;;;;;;;;;;
2021/03/23 06:25:19;;;;;;;7.10;4.83;;;7.00;99.90;;;;;;4938334;28;20636;-62
2021/03/23 06:28:00;;;;;;;7.50;5.40;;;7.00;99.90;;;;;;4916635;28;20679;-62
2021/03/23 06:31:06;;;;;;;9.60;5.37;;;7.00;99.90;;;;;;4935263;28;20655;-63
2021/03/23 06:33:35;;;;;;;8.40;5.50;;;7.00;99.90;;;;;;4938448;28;20789;-62
2021/03/23 06:36:24;;;;;;;8.53;5.63;;;7.00;99.90;;;;;;4943074;28;21067;-62
2021/03/23 06:39:06;;;;;;;10.07;5.90;;;7.00;99.90;;;;;;4945052;28;20751;-63
2021/03/23 06:41:37;;;;;;;7.23;5.67;;;7.10;99.90;;;;;;4938795;28;21319;-62
2021/03/23 06:44:15;;;;;;;12.70;7.03;;;7.10;99.90;;;;;;4926956;28;20624;-61
2021/03/23 06:46:45;;;;;;;9.63;6.67;;;7.10;99.90;;;;;;4947767;28;20879;-62
2021/03/23 06:49:18;;;;;;;9.70;6.73;;;7.20;99.90;;;;;;4929950;28;23449;-60
2021/03/23 06:52:02;;;;;;;8.30;7.07;;;7.20;99.90;;;;;;4908884;28;21007;-61
2021/03/23 06:54:47;;;;;;;10.77;7.00;;;7.20;99.90;;;;;;4915529;28;20996;-61
2021/03/23 06:57:18;;;;;;;12.63;7.40;;;7.10;99.90;;;;;;4916718;28;20597;-61
2021/03/23 07:00:08;;;;;;;11.00;7.60;;;7.10;99.90;;;;;;4924515;28;21134;-61
2021/03/23 07:02:40;;;;;;;9.77;7.20;;;7.10;99.90;;;;;;4933137;28;21021;-61
2021/03/23 07:05:24;;;;;;;10.27;8.23;;;7.10;99.90;;;;;;4907021;28;20712;-62
2021/03/23 07:07:55;;;;;;;9.80;7.40;;;7.20;99.90;;;;;;4924405;28;20921;-62
2021/03/23 07:10:24;;;;;;;11.20;8.63;;;7.20;99.90;;;;;;4905433;28;21579;-61
2021/03/23 07:12:52;;;;;;;12.33;8.60;;;7.30;99.90;;;;;;4923114;28;20645;-61
2021/03/23 07:15:20;;;;;;;11.50;8.67;;;7.30;99.90;;;;;;4925538;28;20857;-62
2021/03/23 07:17:48;;;;;;;10.83;8.93;;;7.30;99.90;;;;;;4925481;28;20613;-61
2021/03/23 07:20:32;;;;;;;13.70;9.93;;;7.30;99.90;;;;;;4934677;28;21048;-62
2021/03/23 07:23:01;;;;;;;13.33;9.47;;;7.40;99.90;;;;;;4930997;28;20769;-61
2021/03/23 07:25:38;;;;;;;14.43;9.93;;;7.40;99.90;;;;;;4929243;28;20637;-61
2021/03/23 07:28:23;;;;;;;13.23;10.60;;;7.30;99.90;;;;;;4932437;28;20732;-61
2021/03/23 07:30:51;;;;;;;17.10;10.93;;;7.40;99.90;;;;;;4927105;28;20617;-61
2021/03/23 07:33:33;;;;;;;16.30;10.80;;;7.40;99.90;;;;;;4923612;28;23594;-60
2021/03/23 07:35:59;;;;;;;15.30;11.60;;;7.30;99.90;;;;;;4925505;28;20641;-62
2021/03/23 07:38:52;;;;;;;15.10;11.90;;;7.20;99.90;;;;;;4939319;28;21772;-61
2021/03/23 07:41:23;;;;;;;16.40;11.90;;;7.40;99.90;;;;;;4924934;28;20240;-61
2021/03/23 07:44:00;;;;;;;15.43;10.97;;;7.40;99.90;;;;;;4920139;28;20633;-62
2021/03/23 07:46:34;;;;;;;17.50;12.00;;;7.40;99.90;;;;;;4924325;28;20573;-61
2021/03/23 07:49:11;;;;;;;17.80;12.30;;;7.30;99.90;;;;;;4930815;28;23034;-62
2021/03/23 07:51:44;;;;;;;17.23;11.80;;;7.20;99.90;;;;;;4919238;28;20636;-61
2021/03/23 07:54:32;;;;;;;16.90;12.20;;;7.30;99.90;;;;;;4940498;28;20682;-61
2021/03/23 07:57:15;;;;;;;16.63;11.70;;;7.30;99.90;;;;;;4925863;28;21258;-62
2021/03/23 07:59:59;;;;;;;19.13;12.00;;;7.30;99.90;;;;;;4925435;28;20689;-64
2021/03/23 08:02:51;;;;;;;14.27;10.80;;;7.30;99.90;;;;;;4920419;28;21208;-62
2021/03/23 08:05:58;;;;;;;17.10;11.60;;;7.30;99.90;;;;;;4917695;28;20655;-62
2021/03/23 08:09:03;;;;;;;19.03;12.57;;;7.30;99.90;;;;;;4912457;28;20822;-62
2021/03/23 08:11:50;;;;;;;17.23;12.73;;;7.30;99.90;;;;;;4926301;28;20713;-62
2021/03/23 08:14:31;;;;;;;18.80;11.37;;;7.30;99.90;;;;;;4928549;28;20633;-62
2021/03/23 08:17:31;;;;;;;15.63;11.70;;;7.40;99.90;;;;;;4929649;28;20586;-62
2021/03/23 08:20:34;;;;;;;19.30;13.07;;;7.40;99.90;;;;;;4921340;28;20680;-62
2021/03/23 08:23:09;;;;;;;16.53;11.73;;;7.40;99.90;;;;;;4922443;28;20703;-62
2021/03/23 08:25:49;;;;;;;18.33;13.00;;;7.50;99.90;;;;;;4922971;28;20616;-62
2021/03/23 08:28:48;;;;;;;19.10;13.73;;;7.50;99.90;;;;;;4928334;28;20659;-62
2021/03/23 08:31:30;;;;;;;18.67;13.20;;;7.50;99.90;;;;;;4901583;28;21110;-62
2021/03/23 08:34:15;;;;;;;17.83;12.70;;;7.30;99.90;;;;;;4927934;28;20636;-62
2021/03/23 08:37:03;;;;;;;19.00;13.33;;;7.30;99.90;;;;;;4925586;28;20677;-62
2021/03/23 08:39:58;;;;;;;20.73;12.83;;;7.30;99.90;;;;;;4935949;28;20933;-62
2021/03/23 08:42:25;;;;;;;17.20;13.20;;;7.30;99.90;;;;;;4921208;28;21479;-63
2021/03/23 08:45:17;;;;;;;18.97;12.53;;;7.40;99.90;;;;;;4931940;28;20625;-62
2021/03/23 08:47:48;;;;;;;22.00;12.50;;;7.50;99.90;;;;;;4919518;28;20775;-62
2021/03/23 08:50:33;;;;;;;17.10;12.80;;;7.60;99.90;;;;;;4910338;28;21181;-62
2021/03/23 08:53:01;;;;;;;16.70;13.03;;;7.60;99.90;;;;;;4924100;28;22112;-63
2021/03/23 08:55:29;;;;;;;19.30;12.23;;;7.70;99.90;;;;;;4919225;28;20636;-62
2021/03/23 08:58:04;;;;;;;18.37;13.50;;;7.70;99.90;;;;;;4937316;28;20625;-62
2021/03/23 09:00:39;;;;;;;21.70;14.27;;;7.80;99.90;;;;;;4919762;28;21420;-64
2021/03/23 09:03:10;;;;;;;20.37;13.53;;;7.80;99.90;;;;;;4908255;28;20673;-62
2021/03/23 09:05:52;;;;;;;25.97;14.23;;;7.70;99.90;;;;;;4907801;28;21414;-65
2021/03/23 09:08:27;;;;;;;23.20;13.50;;;7.60;99.90;;;;;;4926522;28;24391;-62
2021/03/23 09:10:58;;;;;;;18.70;13.73;;;7.70;99.90;;;;;;4924306;28;20719;-62
2021/03/23 09:13:44;;;;;;;19.10;13.70;;;7.70;99.90;;;;;;4926949;28;22528;-62
2021/03/23 09:16:12;;;;;;;17.40;13.07;;;7.70;99.90;;;;;;4933888;28;20613;-65
2021/03/23 09:19:03;;;;;;;17.47;12.87;;;7.70;99.90;;;;;;4928942;28;20668;-63
2021/03/23 09:21:58;;;;;;;18.30;13.40;;;7.70;99.90;;;;;;4928036;28;20680;-61
2021/03/23 09:24:27;;;;;;;20.40;13.20;;;7.70;99.90;;;;;;4924822;28;20609;-62
2021/03/23 09:26:54;;;;;;;18.27;14.20;;;7.60;99.90;;;;;;4922814;28;20617;-62
2021/03/23 09:29:33;;;;;;;19.20;13.83;;;7.70;99.90;;;;;;4935219;28;21203;-62
2021/03/23 09:32:10;;;;;;;19.40;13.60;;;7.80;99.90;;;;;;4950729;28;20767;-62
2021/03/23 09:35:01;;;;;;;22.40;14.30;;;7.80;99.90;;;;;;4930799;28;22460;-63
2021/03/23 09:37:38;;;;;;;19.63;13.77;;;7.90;99.90;;;;;;4910444;28;20989;-62
2021/03/23 09:40:19;;;;;;;19.77;13.70;;;7.90;99.90;;;;;;4932791;28;20699;-62
2021/03/23 09:42:53;;;;;;;18.10;14.00;;;7.90;99.90;;;;;;4915854;28;20974;-63
2021/03/23 09:45:34;;;;;;;19.80;13.37;;;7.80;99.90;;;;;;4920099;28;20929;-63
2021/03/23 09:48:22;;;;;;;21.70;14.20;;;7.80;99.90;;;;;;4919979;28;20625;-63
2021/03/23 09:50:51;;;;;;;19.63;14.60;;;7.70;99.90;;;;;;4917105;28;20624;-63
2021/03/23 09:53:29;;;;;;;19.90;14.07;;;7.80;99.90;;;;;;4922909;28;20649;-64
2021/03/23 09:56:14;;;;;;;20.87;14.47;;;7.70;99.90;;;;;;4912645;28;20834;-63
2021/03/23 09:58:41;;;;;;;17.90;14.10;;;7.80;99.90;;;;;;4917500;28;20771;-70
2021/03/23 10:01:10;;;;;;;20.23;14.00;;;7.80;99.90;;;;;;4924844;28;20679;-64
2021/03/23 10:03:38;;;;;;;21.40;14.20;;;7.80;99.90;;;;;;4912236;28;21223;-64
2021/03/23 10:06:26;;;;;;;22.00;16.23;;;7.70;99.90;;;;;;4924690;28;20610;-64
2021/03/23 10:09:06;;;;;;;21.33;13.90;;;7.80;99.90;;;;;;4903101;28;20661;-63
2021/03/23 10:11:36;;;;;;;24.27;14.00;;;7.90;99.90;;;;;;4924984;28;20644;-62
2021/03/23 10:14:09;;;;;;;17.90;14.00;;;7.80;99.90;;;;;;4921318;28;20652;-62
2021/03/23 10:16:36;;;;;;;23.40;14.67;;;7.80;99.90;;;;;;4906127;28;21406;-62
2021/03/23 10:19:30;;;;;;;23.87;15.90;;;7.90;99.90;;;;;;4932055;28;20687;-64
2021/03/23 10:21:56;;;;;;;26.63;15.10;;;7.90;99.90;;;;;;4924257;28;20641;-63
2021/03/23 10:24:26;;;;;;;24.20;15.40;;;7.80;99.90;;;;;;4939843;28;20609;-63
2021/03/23 10:26:53;;;;;;;22.10;15.40;;;7.90;99.90;;;;;;4930514;28;20661;-63
2021/03/23 10:29:25;;;;;;;20.40;14.70;;;7.90;99.90;;;;;;4935851;28;20657;-61
2021/03/23 10:31:53;;;;;;;22.67;14.80;;;7.90;99.90;;;;;;4909219;28;20751;-65
2021/03/23 10:34:23;;;;;;;28.03;17.17;;;7.80;99.90;;;;;;4927655;28;20624;-63
2021/03/23 10:36:56;;;;;;;22.27;15.60;;;7.80;99.90;;;;;;4904581;28;21583;-62
2021/03/23 10:39:26;;;;;;;21.20;14.93;;;7.90;99.90;;;;;;4921007;28;20676;-62
2021/03/23 10:41:51;;;;;;;22.00;15.27;;;7.90;99.90;;;;;;4917660;28;20655;-61
2021/03/23 10:44:21;;;;;;;24.73;16.13;;;8.00;99.90;;;;;;4920164;28;20618;-61
2021/03/23 10:46:48;;;;;;;26.17;16.77;;;7.90;99.90;;;;;;4926905;28;20638;-63
2021/03/23 10:49:19;;;;;;;24.07;15.20;;;8.00;99.90;;;;;;4921201;28;20644;-62
2021/03/23 10:51:48;;;;;;;22.13;15.73;;;7.90;99.90;;;;;;4924811;28;20653;-62
2021/03/23 10:54:14;;;;;;;24.30;16.83;;;7.90;99.90;;;;;;4926293;28;21414;-62
2021/03/23 10:56:49;;;;;;;21.87;16.33;;;8.00;99.90;;;;;;4925720;28;20629;-62
2021/03/23 10:59:20;;;;;;;26.73;17.03;;;8.10;99.90;;;;;;4946587;28;20275;-61
2021/03/23 11:02:01;;;;;;;24.40;16.30;;;8.10;99.90;;;;;;4955733;28;21378;-63
2021/03/23 11:04:28;;;;;;;25.67;18.07;;;8.10;99.90;;;;;;4951984;28;20687;-61
2021/03/23 11:06:54;;;;;;;23.60;15.13;;;8.20;99.90;;;;;;4959707;28;20691;-62
2021/03/23 11:09:21;;;;;;;22.67;15.63;;;8.10;99.90;;;;;;4932952;28;20655;-63
2021/03/23 11:11:49;;;;;;;24.60;16.60;;;8.20;99.90;;;;;;4935482;28;20723;-62
2021/03/23 11:14:16;;;;;;;21.73;16.30;;;8.20;99.90;;;;;;4932053;28;21159;-62
2021/03/23 11:16:43;;;;;;;23.70;16.07;;;8.20;99.90;;;;;;4924031;28;20925;-62
2021/03/23 11:19:31;;;;;;;24.60;16.30;;;8.30;99.90;;;;;;4927790;28;20796;-63
2021/03/23 11:21:59;;;;;;;24.03;15.67;;;8.50;99.90;;;;;;4934156;28;20630;-62
2021/03/23 11:24:26;;;;;;;20.87;14.87;;;8.50;99.90;;;;;;4923250;28;20829;-62
2021/03/23 11:26:51;;;;;;;20.00;15.60;;;8.40;99.90;;;;;;4935406;28;20775;-62
2021/03/23 11:29:19;;;;;;;22.50;15.60;;;8.40;99.90;;;;;;4923721;28;22222;-62
2021/03/23 11:31:45;;;;;;;22.17;15.60;;;8.30;99.90;;;;;;4922220;28;20645;-62
2021/03/23 11:34:10;;;;;;;21.83;16.13;;;8.40;99.90;;;;;;4924572;28;20698;-62
2021/03/23 11:36:36;;;;;;;20.00;15.20;;;8.50;99.90;;;;;;4924246;28;20245;-62
2021/03/23 11:39:04;;;;;;;21.90;16.33;;;8.50;99.90;;;;;;4931852;28;21779;-62
2021/03/23 11:41:40;;;;;;;24.00;15.60;;;8.40;99.90;;;;;;4930446;28;20625;-62
2021/03/23 11:44:21;;;;;;;21.43;15.53;;;8.50;99.90;;;;;;4936960;28;20705;-62
2021/03/23 11:47:03;;;;;;;23.67;15.90;;;8.50;99.90;;;;;;4929478;28;20687;-62
2021/03/23 11:49:50;;;;;;;21.70;15.20;;;8.50;99.90;;;;;;4932254;28;20710;-62
2021/03/23 11:52:16;;;;;;;22.93;15.27;;;8.50;99.90;;;;;;4941711;28;20763;-68
2021/03/23 11:54:42;;;;;;;21.00;15.17;;;8.50;99.90;;;;;;4918188;28;21490;-66
2021/03/23 11:57:08;;;;;;;20.10;14.70;;;8.60;99.90;;;;;;4946606;28;20671;-68
2021/03/23 11:59:34;;;;;;;20.57;15.67;;;8.60;99.90;;;;;;4931689;28;20242;-66
2021/03/23 12:02:03;;;;;;;24.17;16.10;;;8.70;99.90;;;;;;4932341;28;21347;-69
2021/03/23 12:04:29;;;;;;;25.53;16.30;;;8.80;99.90;;;;;;4924347;28;20254;-69
2021/03/23 12:07:23;;;;;;;21.90;14.93;;;8.80;99.90;;;;;;4923761;28;22163;-69
2021/03/23 12:09:56;;;;;;;22.90;14.97;;;8.90;99.90;;;;;;4926572;28;20984;-66
2021/03/23 12:12:44;;;;;;;21.70;15.40;;;8.80;99.90;;;;;;4919503;28;21285;-69
2021/03/23 12:15:19;;;;;;;24.57;15.47;;;8.80;99.90;;;;;;4919039;28;21781;-65
2021/03/23 12:17:46;;;;;;;21.33;14.83;;;8.80;99.90;;;;;;4917444;28;20592;-61
2021/03/23 12:20:23;;;;;;;25.20;15.80;;;8.80;99.90;;;;;;4924493;28;22719;-65
2021/03/23 12:22:51;;;;;;;23.57;16.93;;;8.80;99.90;;;;;;4927521;28;20656;-61
2021/03/23 12:25:23;;;;;;;25.97;16.40;;;8.90;99.90;;;;;;4923878;28;20626;-61
2021/03/23 12:27:48;;;;;;;23.27;15.80;;;8.90;99.90;;;;;;4930540;28;20601;-62
2021/03/23 12:30:15;;;;;;;22.00;15.97;;;8.90;99.90;;;;;;4911391;28;20656;-61
2021/03/23 12:32:41;;;;;;;23.10;15.97;;;8.90;99.90;;;;;;4909106;28;20226;-62
2021/03/23 12:35:15;;;;;;;23.30;15.77;;;8.90;99.90;;;;;;4930688;28;20621;-64
2021/03/23 12:37:42;;;;;;;21.80;15.47;;;9.00;99.90;;;;;;4922067;28;20706;-62
2021/03/23 12:40:10;;;;;;;21.47;16.43;;;9.00;99.90;;;;;;4929414;28;20660;-62
2021/03/23 12:42:35;;;;;;;26.23;15.60;;;9.00;99.90;;;;;;4936408;28;20747;-62
2021/03/23 12:45:02;;;;;;;25.40;15.93;;;9.10;99.90;;;;;;4928444;28;21507;-61
2021/03/23 12:47:27;;;;;;;20.60;15.07;;;9.10;99.90;;;;;;4942491;28;20201;-62
2021/03/23 12:49:53;;;;;;;17.70;13.33;;;9.10;99.90;;;;;;4910226;28;20664;-62
2021/03/23 12:52:21;;;;;;;19.20;14.27;;;9.20;99.90;;;;;;4934135;28;20574;-62
2021/03/23 12:54:55;;;;;;;19.20;13.80;;;9.30;99.90;;;;;;4919213;28;24040;-62
2021/03/23 12:57:24;;;;;;;22.00;16.03;;;9.40;99.90;;;;;;4926717;28;20589;-61
2021/03/23 12:59:53;;;;;;;23.87;16.40;;;9.40;99.90;;;;;;4927410;28;20664;-61
2021/03/23 13:02:22;;;;;;;24.00;17.27;;;9.40;99.90;;;;;;4923566;28;20737;-61
2021/03/23 13:04:48;;;;;;;21.63;15.60;;;9.40;99.90;;;;;;4937125;28;21164;-61
2021/03/23 13:07:40;;;;;;;21.60;15.77;;;9.40;99.90;;;;;;4934880;28;20621;-62
2021/03/23 13:10:16;;;;;;;24.13;15.87;;;9.30;99.90;;;;;;4922433;28;20678;-62
2021/03/23 13:12:42;;;;;;;24.70;16.07;;;9.20;99.90;;;;;;4933378;28;21391;-62
2021/03/23 13:15:11;;;;;;;21.73;16.00;;;9.30;99.90;;;;;;4921062;28;20637;-61
2021/03/23 13:17:37;;;;;;;24.43;17.77;;;9.20;99.90;;;;;;4926715;28;20662;-61
2021/03/23 13:20:03;;;;;;;25.90;18.57;;;9.10;99.90;;;;;;4935816;28;20669;-62
2021/03/23 13:22:36;;;;;;;24.70;16.60;;;9.20;99.90;;;;;;4953505;28;20669;-61
2021/03/23 13:25:06;;;;;;;28.00;17.47;;;9.10;99.90;;;;;;4948469;28;21043;-61
2021/03/23 13:27:36;;;;;;;25.33;17.20;;;9.20;99.90;;;;;;4941582;28;20737;-63
2021/03/23 13:30:08;;;;;;;23.83;17.60;;;9.10;99.90;;;;;;4941167;28;21223;-62
2021/03/23 13:32:33;;;;;;;23.97;18.87;;;9.20;99.90;;;;;;4930216;28;21172;-63
2021/03/23 13:34:59;;;;;;;25.60;17.97;;;9.20;99.90;;;;;;4938848;28;20690;-63
2021/03/23 13:37:28;;;;;;;24.50;17.10;;;9.30;99.90;;;;;;4938420;28;20688;-66